Date,TemperatureHighF,TemperatureAvgF,TemperatureLowF,DewpointHighF,DewpointAvgF,DewpointLowF,HumidityHigh,HumidityAvg,HumidityLow,PressureMaxIn,PressureMinIn,WindSpeedMaxMPH,WindSpeedAvgMPH,GustSpeedMaxMPH,PrecipitationSumIn
2013-2-1,60.0,36.4,26.0,21.0,4.8,-44.0,55,33,3,0.00,40.00,1,0,7,0.00
2013-2-2,51.0,35.4,29.0,14.0,-1.7,-99.9,47,27,5,0.00,40.00,2,0,6,0.00
2013-2-3,50.0,34.1,25.0,20.0,9.3,-7.0,59,36,24,0.00,40.00,2,0,11,0.00
2013-2-4,54.0,36.5,26.0,24.0,13.0,1.0,75,41,17,0.00,40.00,1,0,8,0.00
2013-2-5,47.0,33.3,24.0,22.0,15.3,-1.0,80,51,13,0.00,40.00,5,1,11,0.00
2013-2-6,51.0,27.5,17.0,17.0,5.0,-42.0,79,49,3,0.00,40.00,1,0,7,0.00
2013-2-7,36.0,26.0,19.0,18.0,5.6,-12.0,83,47,12,0.00,40.00,6,2,17,0.00
2013-2-8,26.0,16.6,8.0,16.0,9.5,2.0,85,74,50,0.00,40.00,0,0,7,0.00
2013-2-9,40.0,19.0,10.0,19.0,9.7,0.0,90,70,18,0.00,40.00,1,0,7,0.12
2013-2-10,40.0,22.3,13.0,7.0,2.8,-5.0,73,45,20,0.00,40.00,3,0,11,0.01
2013-2-11,43.0,21.4,9.0,16.0,-0.6,-22.0,62,41,6,0.00,40.00,3,0,13,0.01
2013-2-12,49.0,26.8,17.0,20.0,3.9,-18.0,58,39,8,0.00,40.00,1,0,6,0.03
2013-2-13,52.0,31.6,25.0,21.0,14.9,9.0,71,52,22,0.00,40.00,1,0,8,0.01
2013-2-14,57.0,33.0,24.0,15.0,7.6,-14.0,61,37,6,0.00,40.00,1,0,7,0.00
2013-2-15,60.0,36.6,28.0,19.0,3.4,-20.0,62,29,4,0.00,40.00,1,0,8,0.00
2013-2-16,50.0,33.6,26.0,16.0,3.1,-33.0,59,34,3,0.00,40.00,5,0,11,0.00
2013-2-17,50.0,30.0,20.0,19.0,5.4,-15.0,70,40,7,0.00,40.00,2,0,9,0.00
2013-2-18,44.0,29.5,22.0,21.0,9.1,-19.0,69,46,6,0.00,40.00,7,2,17,0.00
2013-2-19,28.0,22.3,16.0,20.0,15.0,8.0,88,74,43,0.00,40.00,7,4,16,0.00
2013-2-20,39.0,18.8,13.0,19.0,10.6,-5.0,86,73,15,0.00,40.00,3,0,13,0.15
2013-2-21,41.0,18.3,11.0,19.0,9.8,-9.0,91,73,11,0.00,40.00,3,0,13,0.04
2013-2-22,48.0,31.1,15.0,25.0,15.5,-1.0,83,56,17,0.00,40.00,2,0,9,0.00
2013-2-23,35.0,27.1,15.0,26.0,17.4,-6.0,89,68,33,0.00,40.00,2,0,9,0.00
2013-2-24,51.0,29.0,15.0,3.0,-14.4,-39.0,40,17,4,0.00,40.00,4,1,15,0.00
2013-2-25,48.0,31.4,21.0,23.0,7.0,-15.0,87,42,7,0.00,40.00,3,0,10,0.00
2013-2-26,45.0,26.2,19.0,16.0,-1.3,-28.0,82,36,4,0.00,40.00,2,0,9,0.00
2013-2-27,50.0,30.8,20.0,16.0,0.4,-27.0,65,31,4,0.00,40.00,3,0,9,0.00
2013-2-28,54.0,36.6,23.0,27.0,17.9,0.0,77,50,25,0.00,40.00,2,0,8,0.00